createdAt,value
2023-03-06T00:01:36.138Z,4.47
2023-03-06T00:04:08.349Z,4.80
2023-03-06T00:06:38.511Z,4.95
2023-03-06T00:09:09.376Z,5.27
2023-03-06T00:11:44.603Z,4.16
2023-03-06T00:14:14.798Z,5.16
2023-03-06T00:16:44.911Z,4.32
2023-03-06T00:19:14.954Z,4.96
2023-03-06T00:21:45.237Z,4.16
2023-03-06T00:24:15.234Z,3.79
2023-03-06T00:26:51.309Z,3.91
2023-03-06T00:29:27.235Z,5.49
2023-03-06T00:32:05.410Z,4.97
2023-03-06T00:34:37.196Z,5.64
2023-03-06T00:37:07.416Z,4.50
2023-03-06T00:39:37.656Z,5.08
2023-03-06T00:42:10.598Z,5.56
2023-03-06T00:44:41.764Z,4.32
2023-03-06T00:47:12.397Z,4.53
2023-03-06T00:49:45.618Z,5.24
2023-03-06T00:52:23.043Z,5.39
2023-03-06T00:55:00.652Z,4.29
2023-03-06T00:57:37.036Z,5.23
2023-03-06T01:00:17.791Z,3.78
2023-03-06T01:02:59.142Z,5.53
2023-03-06T01:06:09.701Z,4.43
2023-03-06T01:09:23.031Z,5.38
2023-03-06T01:12:23.293Z,4.29
2023-03-06T01:15:28.442Z,4.37
2023-03-06T01:18:54.088Z,4.37
2023-03-06T01:21:29.112Z,4.43
2023-03-06T01:23:59.984Z,4.18
2023-03-06T01:26:52.979Z,5.36
2023-03-06T01:29:59.082Z,5.41
2023-03-06T01:33:32.894Z,4.05
2023-03-06T01:36:13.565Z,5.30
2023-03-06T01:38:43.465Z,5.13
2023-03-06T01:41:16.019Z,5.39
2023-03-06T01:43:48.573Z,4.57
2023-03-06T01:46:38.141Z,5.00
2023-03-06T01:49:18.106Z,4.96
2023-03-06T01:51:53.205Z,4.55
2023-03-06T01:54:28.348Z,4.62
2023-03-06T01:57:04.027Z,4.37
2023-03-06T01:59:36.612Z,5.22
2023-03-06T02:02:09.308Z,3.85
2023-03-06T02:04:44.354Z,4.57
2023-03-06T02:07:14.848Z,5.02
2023-03-06T02:09:44.888Z,3.86
2023-03-06T02:12:17.285Z,3.43
2023-03-06T02:14:48.251Z,4.45
2023-03-06T02:17:21.077Z,3.57
2023-03-06T02:20:01.401Z,4.46
2023-03-06T02:22:38.783Z,4.10
2023-03-06T02:25:17.155Z,3.86
2023-03-06T02:27:50.964Z,4.73
2023-03-06T02:30:22.014Z,4.53
2023-03-06T02:32:52.044Z,4.15
2023-03-06T02:35:23.202Z,4.39
2023-03-06T02:37:53.280Z,3.74
2023-03-06T02:40:24.922Z,3.31
2023-03-06T02:43:00.584Z,4.01
2023-03-06T02:45:38.410Z,4.39
2023-03-06T02:48:09.494Z,4.62
2023-03-06T02:50:39.295Z,3.53
2023-03-06T02:53:10.188Z,4.17
2023-03-06T02:55:40.768Z,3.92
2023-03-06T02:58:13.557Z,4.87
2023-03-06T03:00:43.600Z,4.41
2023-03-06T03:03:13.490Z,3.53
2023-03-06T03:05:43.375Z,3.68
2023-03-06T03:08:19.860Z,3.19
2023-03-06T03:10:51.171Z,4.41
2023-03-06T03:13:23.836Z,4.80
2023-03-06T03:16:01.507Z,4.65
2023-03-06T03:18:31.697Z,4.49
2023-03-06T03:21:01.852Z,3.39
2023-03-06T03:23:31.683Z,2.89
2023-03-06T03:26:09.145Z,4.86
2023-03-06T03:28:44.037Z,4.49
2023-03-06T03:31:16.768Z,4.50
2023-03-06T03:33:47.338Z,4.51
2023-03-06T03:36:17.425Z,4.16
2023-03-06T03:38:49.859Z,4.54
2023-03-06T03:41:20.743Z,2.75
2023-03-06T03:44:02.725Z,3.36
2023-03-06T03:46:42.822Z,4.68
2023-03-06T03:49:21.361Z,4.61
2023-03-06T03:51:51.777Z,4.45
2023-03-06T03:54:23.436Z,4.00
2023-03-06T03:56:55.674Z,4.54
2023-03-06T03:59:35.037Z,4.47
2023-03-06T04:02:30.596Z,4.00
2023-03-06T04:05:08.790Z,4.57
2023-03-06T04:07:38.673Z,4.41
2023-03-06T04:10:10.084Z,4.61
2023-03-06T04:12:40.367Z,4.72
2023-03-06T04:15:13.996Z,4.77
2023-03-06T04:17:44.488Z,4.60
2023-03-06T04:20:18.395Z,4.76
2023-03-06T04:22:49.754Z,4.37
2023-03-06T04:25:20.487Z,4.77
2023-03-06T04:27:50.295Z,4.75
2023-03-06T04:30:24.782Z,4.79
2023-03-06T04:32:54.784Z,4.80
2023-03-06T04:35:24.527Z,4.67
2023-03-06T04:38:01.190Z,4.80
2023-03-06T04:40:34.711Z,4.90
2023-03-06T04:43:04.954Z,4.77
2023-03-06T04:45:37.656Z,4.83
2023-03-06T04:48:07.890Z,4.84
2023-03-06T04:50:38.244Z,4.84
2023-03-06T04:53:08.729Z,4.88
2023-03-06T04:55:38.421Z,4.80
2023-03-06T04:58:08.192Z,4.77
2023-03-06T05:00:40.490Z,4.61
2023-03-06T05:03:11.278Z,4.65
2023-03-06T05:05:40.919Z,4.61
2023-03-06T05:08:11.085Z,4.49
2023-03-06T05:10:40.692Z,4.53
2023-03-06T05:13:10.348Z,4.65
2023-03-06T05:15:43.199Z,4.70
2023-03-06T05:18:12.864Z,4.62
2023-03-06T05:20:42.528Z,4.51
2023-03-06T05:23:12.178Z,4.23
2023-03-06T05:25:42.745Z,4.54
2023-03-06T05:28:12.391Z,4.56
2023-03-06T05:30:44.582Z,4.35
2023-03-06T05:33:14.221Z,4.70
2023-03-06T05:35:47.995Z,4.53
2023-03-06T05:38:18.175Z,4.62
2023-03-06T05:40:48.409Z,4.58
2023-03-06T05:43:18.027Z,4.53
2023-03-06T05:45:50.591Z,4.17
2023-03-06T05:48:20.316Z,4.50
2023-03-06T05:50:57.860Z,4.58
2023-03-06T05:53:28.103Z,4.53
2023-03-06T05:56:02.182Z,4.56
2023-03-06T05:58:32.999Z,4.54
2023-03-06T06:01:11.676Z,4.40
2023-03-06T06:03:41.394Z,4.34
2023-03-06T06:06:13.211Z,4.20
2023-03-06T06:08:43.777Z,4.13
2023-03-06T06:11:14.684Z,4.04
2023-03-06T06:13:44.512Z,3.96
2023-03-06T06:16:19.641Z,4.02
2023-03-06T06:18:49.489Z,4.27
2023-03-06T06:21:19.095Z,4.09
2023-03-06T06:23:48.684Z,4.13
2023-03-06T06:26:18.432Z,4.17
2023-03-06T06:28:48.059Z,4.13
2023-03-06T06:31:20.334Z,4.10
2023-03-06T06:33:49.954Z,4.22
2023-03-06T06:36:20.146Z,4.19
2023-03-06T06:38:50.611Z,4.06
2023-03-06T06:41:42.623Z,4.22
2023-03-06T06:44:12.589Z,4.22
2023-03-06T06:49:35.428Z,3.98
2023-03-06T06:52:05.230Z,4.40
2023-03-06T06:54:35.209Z,4.44
2023-03-06T06:57:04.945Z,4.04
2023-03-06T06:59:34.598Z,4.34
2023-03-06T07:02:07.260Z,4.49
2023-03-06T07:04:36.908Z,4.41
2023-03-06T07:07:06.531Z,4.55
2023-03-06T07:09:36.164Z,4.60
2023-03-06T07:12:05.802Z,4.55
2023-03-06T07:14:35.443Z,4.66
2023-03-06T07:17:07.723Z,4.51
2023-03-06T07:19:38.606Z,4.64
2023-03-06T07:22:08.510Z,4.61
2023-03-06T07:24:38.313Z,4.71
2023-03-06T07:27:08.028Z,4.71
2023-03-06T07:29:37.888Z,4.73
2023-03-06T07:32:10.173Z,4.75
2023-03-06T07:34:39.968Z,4.65
2023-03-06T07:37:09.592Z,4.62
2023-03-06T07:39:39.443Z,4.78
2023-03-06T07:42:09.521Z,4.75
2023-03-06T07:44:44.948Z,4.42
2023-03-06T07:47:17.531Z,4.69
2023-03-06T07:49:47.184Z,4.67
2023-03-06T07:52:17.111Z,4.56
2023-03-06T07:54:46.730Z,4.52
2023-03-06T07:57:16.405Z,4.49
2023-03-06T07:59:46.020Z,4.58
2023-03-06T08:02:18.188Z,4.64
2023-03-06T08:04:47.797Z,4.52
2023-03-06T08:07:17.380Z,4.60
2023-03-06T08:09:46.997Z,4.50
2023-03-06T08:12:16.764Z,4.64
2023-03-06T08:14:46.381Z,4.50
2023-03-06T08:17:18.628Z,4.37
2023-03-06T08:19:48.283Z,4.45
2023-03-06T08:22:17.893Z,4.23
2023-03-06T08:24:47.483Z,4.49
2023-03-06T08:27:17.062Z,4.45
2023-03-06T08:29:46.668Z,4.67
2023-03-06T08:32:18.938Z,4.64
2023-03-06T08:34:48.580Z,4.74
2023-03-06T08:37:18.264Z,4.65
2023-03-06T08:39:48.346Z,4.42
2023-03-06T08:42:18.467Z,4.51
2023-03-06T08:44:48.143Z,4.59
2023-03-06T08:47:21.439Z,4.69
2023-03-06T08:49:51.052Z,4.59
2023-03-06T08:52:20.630Z,4.28
2023-03-06T08:54:50.231Z,4.07
2023-03-06T08:57:19.828Z,3.93
2023-03-06T08:59:49.414Z,3.86
2023-03-06T09:02:21.612Z,3.88
2023-03-06T09:04:51.254Z,3.84
2023-03-06T09:07:20.839Z,3.88
2023-03-06T09:09:50.463Z,3.82
2023-03-06T09:12:20.099Z,3.87
2023-03-06T09:14:49.730Z,3.81
2023-03-06T09:17:21.962Z,3.79
2023-03-06T09:19:52.492Z,3.77
2023-03-06T09:22:22.106Z,3.80
2023-03-06T09:24:52.172Z,3.86
2023-03-06T09:27:22.850Z,3.56
2023-03-06T09:29:52.520Z,3.68
2023-03-06T09:32:25.746Z,3.75
2023-03-06T09:34:55.424Z,3.81
2023-03-06T09:37:25.177Z,3.95
2023-03-06T09:39:54.819Z,4.02
2023-03-06T09:42:26.001Z,4.05
2023-03-06T09:44:58.802Z,3.92
2023-03-06T09:47:43.621Z,3.94
2023-03-06T09:50:24.728Z,3.82
2023-03-06T09:53:06.976Z,4.11
2023-03-06T09:55:40.793Z,4.07
2023-03-06T09:58:16.926Z,4.32
2023-03-06T10:00:52.896Z,3.83
2023-03-06T10:03:29.847Z,4.32
2023-03-06T10:06:04.622Z,4.15
2023-03-06T10:08:46.346Z,4.26
2023-03-06T10:11:21.181Z,4.37
2023-03-06T10:13:57.525Z,4.54
2023-03-06T10:16:30.476Z,4.60
2023-03-06T10:19:05.223Z,4.76
2023-03-06T10:21:48.513Z,4.82
2023-03-06T10:24:27.786Z,4.82
2023-03-06T10:27:06.028Z,5.02
2023-03-06T10:30:01.289Z,5.08
2023-03-06T10:32:48.251Z,5.27
2023-03-06T10:35:25.699Z,5.29
2023-03-06T10:38:02.866Z,5.49
2023-03-06T10:40:43.554Z,5.58
2023-03-06T10:43:13.916Z,5.33
2023-03-06T10:45:55.026Z,5.44
2023-03-06T10:48:27.420Z,5.69
2023-03-06T10:51:18.581Z,5.84
2023-03-06T10:53:54.592Z,5.68
2023-03-06T10:56:32.408Z,5.68
2023-03-06T10:59:10.498Z,5.62
2023-03-06T11:01:40.568Z,5.53
2023-03-06T11:04:19.294Z,5.71
2023-03-06T11:06:51.706Z,5.80
2023-03-06T11:09:25.434Z,5.96
2023-03-06T11:11:55.642Z,6.02
2023-03-06T11:14:27.594Z,5.98
2023-03-06T11:16:57.622Z,5.50
2023-03-06T11:19:33.093Z,5.40
2023-03-06T11:22:09.877Z,5.87
2023-03-06T11:24:44.402Z,5.79
2023-03-06T11:27:25.145Z,6.01
2023-03-06T11:29:57.956Z,5.78
2023-03-06T11:32:32.385Z,5.53
2023-03-06T11:35:07.353Z,6.17
2023-03-06T11:37:48.740Z,6.34
2023-03-06T11:40:25.679Z,6.24
2023-03-06T11:43:02.878Z,6.35
2023-03-06T11:45:38.976Z,6.45
2023-03-06T11:48:24.675Z,6.02
2023-03-06T11:50:56.252Z,6.31
2023-03-06T11:53:35.204Z,6.27
2023-03-06T11:56:14.673Z,6.02
2023-03-06T11:59:03.635Z,6.27
2023-03-06T12:01:38.338Z,6.39
2023-03-06T12:04:36.633Z,6.51
2023-03-06T12:07:20.398Z,6.23
2023-03-06T12:09:58.498Z,6.43
2023-03-06T12:12:53.068Z,6.34
2023-03-06T12:15:30.407Z,6.42
2023-03-06T12:18:22.037Z,6.50
2023-03-06T12:21:01.348Z,6.70
2023-03-06T12:23:50.671Z,6.50
2023-03-06T12:26:51.333Z,6.72
2023-03-06T12:29:50.296Z,6.84
2023-03-06T12:32:35.305Z,6.53
2023-03-06T12:35:17.419Z,6.37
2023-03-06T12:37:59.438Z,6.47
2023-03-06T12:40:59.758Z,6.32
2023-03-06T12:43:57.171Z,6.35
2023-03-06T12:46:28.556Z,6.39
2023-03-06T12:49:05.637Z,6.21
2023-03-06T12:51:36.178Z,6.31
2023-03-06T12:54:06.167Z,6.49
2023-03-06T12:56:37.193Z,6.51
2023-03-06T12:59:09.615Z,6.68
2023-03-06T13:09:26.575Z,6.66
2023-03-06T13:16:24.803Z,4.54
2023-03-06T13:22:52.472Z,6.97
2023-03-06T13:26:00.314Z,6.33
2023-03-06T13:29:05.001Z,6.07
2023-03-06T14:01:09.804Z,6.16
2023-03-06T14:04:34.063Z,5.98
2023-03-06T14:07:42.574Z,6.54
2023-03-06T14:10:36.368Z,6.64
2023-03-06T14:17:36.978Z,5.22
2023-03-06T14:32:17.032Z,5.90
2023-03-06T14:39:51.376Z,6.72
2023-03-06T14:43:39.873Z,7.67
2023-03-06T14:46:53.088Z,6.73
2023-03-06T14:49:59.248Z,7.69
2023-03-06T14:53:15.857Z,6.58
2023-03-06T14:56:55.213Z,7.66
2023-03-06T15:08:39.228Z,5.84
2023-03-06T15:19:16.392Z,5.37
2023-03-06T15:22:23.640Z,7.31
2023-03-06T15:25:35.830Z,6.87
2023-03-06T15:28:44.688Z,5.98
2023-03-06T15:31:58.858Z,7.17
2023-03-06T16:43:43.396Z,6.87
2023-03-06T16:46:32.852Z,7.08
2023-03-06T16:49:16.890Z,6.76
2023-03-06T16:51:56.100Z,5.73
2023-03-06T16:54:31.929Z,4.62
2023-03-06T16:57:08.588Z,6.57
2023-03-06T16:59:44.084Z,6.13
2023-03-06T17:02:17.086Z,4.83
2023-03-06T17:04:53.031Z,6.36
2023-03-06T17:07:25.448Z,4.65
2023-03-06T17:10:07.292Z,5.98
2023-03-06T17:12:41.468Z,5.07
2023-03-06T17:15:40.666Z,5.65
2023-03-06T17:18:10.960Z,4.82
2023-03-06T17:20:46.239Z,5.01
2023-03-06T17:23:25.410Z,5.89
2023-03-06T17:26:13.208Z,4.13
2023-03-06T17:28:45.927Z,5.16
2023-03-06T17:31:32.136Z,5.34
2023-03-06T17:34:04.766Z,5.48
2023-03-06T17:36:37.520Z,3.74
2023-03-06T17:39:11.042Z,4.65
2023-03-06T17:41:41.693Z,4.95
2023-03-06T17:44:17.867Z,5.15
2023-03-06T17:46:51.033Z,5.30
2023-03-06T17:49:23.320Z,4.39
2023-03-06T17:51:53.137Z,5.39
2023-03-06T17:54:23.055Z,4.91
2023-03-06T17:56:52.911Z,5.39
2023-03-06T17:59:22.569Z,5.12
2023-03-06T18:01:54.840Z,5.06
2023-03-06T18:04:24.615Z,5.17
2023-03-06T18:06:57.489Z,5.16
2023-03-06T18:09:27.289Z,4.67
2023-03-06T18:11:57.046Z,5.00
2023-03-06T18:14:26.958Z,5.05
2023-03-06T18:16:59.231Z,5.14
2023-03-06T18:19:29.001Z,5.01
2023-03-06T18:22:00.546Z,4.86
2023-03-06T18:24:30.481Z,4.89
2023-03-06T18:27:00.135Z,4.81
2023-03-06T18:29:29.872Z,4.72
2023-03-06T18:32:03.072Z,4.65
2023-03-06T18:34:32.831Z,4.79
2023-03-06T18:37:02.476Z,4.58
2023-03-06T18:39:32.302Z,4.50
2023-03-06T18:42:01.994Z,4.68
2023-03-06T18:44:32.044Z,4.67
2023-03-06T18:47:04.443Z,4.59
2023-03-06T18:49:34.216Z,4.42
2023-03-06T18:52:03.849Z,4.74
2023-03-06T18:54:33.832Z,4.91
2023-03-06T18:57:03.587Z,4.59
2023-03-06T18:59:33.412Z,4.52
2023-03-06T19:02:05.948Z,4.62
2023-03-06T19:04:35.623Z,4.86
2023-03-06T19:07:05.272Z,4.91
2023-03-06T19:09:34.918Z,4.70
2023-03-06T19:12:05.297Z,4.64
2023-03-06T19:14:36.361Z,4.93
2023-03-06T19:17:08.658Z,4.84
2023-03-06T19:19:38.358Z,4.96
2023-03-06T19:22:08.047Z,4.87
2023-03-06T19:24:38.684Z,4.89
2023-03-06T19:27:08.312Z,4.84
2023-03-06T19:29:38.623Z,4.70
2023-03-06T19:32:11.148Z,4.70
2023-03-06T19:34:40.837Z,4.76
2023-03-06T19:37:10.778Z,4.62
2023-03-06T19:39:40.364Z,4.49
2023-03-06T19:42:11.725Z,4.60
2023-03-06T19:44:43.070Z,4.51
2023-03-06T19:47:15.463Z,4.50
2023-03-06T19:49:45.072Z,4.38
2023-03-06T19:52:14.690Z,4.24
2023-03-06T19:54:46.846Z,4.10
2023-03-06T19:57:16.847Z,4.40
2023-03-06T19:59:46.596Z,3.93
2023-03-06T20:02:19.595Z,4.16
2023-03-06T20:04:49.542Z,4.01
2023-03-06T20:07:19.182Z,4.16
2023-03-06T20:09:48.916Z,4.11
2023-03-06T20:12:18.711Z,4.05
2023-03-06T20:14:48.754Z,4.08
2023-03-06T20:17:20.960Z,4.36
2023-03-06T20:19:50.644Z,4.06
2023-03-06T20:22:21.231Z,4.22
2023-03-06T20:24:50.918Z,4.13
2023-03-06T20:27:20.607Z,3.91
2023-03-06T20:29:50.225Z,3.86
2023-03-06T20:32:22.532Z,3.80
2023-03-06T20:34:52.195Z,3.65
2023-03-06T20:37:21.868Z,4.00
2023-03-06T20:39:52.707Z,3.92
2023-03-06T20:42:22.356Z,4.22
2023-03-06T20:44:51.967Z,3.94
2023-03-06T20:47:24.242Z,4.13
2023-03-06T20:49:53.882Z,4.13
2023-03-06T20:52:23.525Z,4.21
2023-03-06T20:54:53.153Z,4.36
2023-03-06T20:57:22.767Z,4.20
2023-03-06T20:59:52.396Z,4.15
2023-03-06T21:02:24.657Z,4.18
2023-03-06T21:04:54.412Z,4.21
2023-03-06T21:07:24.077Z,4.42
2023-03-06T21:09:53.767Z,4.14
2023-03-06T21:12:23.459Z,4.52
2023-03-06T21:14:53.044Z,4.39
2023-03-06T21:17:25.587Z,4.46
2023-03-06T21:19:55.406Z,4.46
2023-03-06T21:22:25.059Z,3.97
2023-03-06T21:24:54.670Z,4.00
2023-03-06T21:27:24.270Z,4.39
2023-03-06T21:29:53.951Z,4.25
2023-03-06T21:32:26.330Z,4.37
2023-03-06T21:34:56.007Z,4.00
2023-03-06T21:37:25.690Z,4.20
2023-03-06T21:39:55.499Z,4.25
2023-03-06T21:42:25.096Z,4.13
2023-03-06T21:44:54.734Z,4.09
2023-03-06T21:47:27.018Z,4.38
2023-03-06T21:49:56.616Z,4.15
2023-03-06T21:52:26.596Z,4.17
2023-03-06T21:54:56.383Z,4.25
2023-03-06T21:57:26.076Z,4.17
2023-03-06T21:59:55.697Z,4.36
2023-03-06T22:02:27.988Z,4.41
2023-03-06T22:04:57.817Z,4.05
2023-03-06T22:07:28.435Z,3.92
2023-03-06T22:09:58.268Z,4.13
2023-03-06T22:12:27.983Z,4.09
2023-03-06T22:14:57.630Z,3.74
2023-03-06T22:17:29.913Z,4.06
2023-03-06T22:19:59.677Z,3.96
2023-03-06T22:22:29.540Z,3.94
2023-03-06T22:24:59.258Z,4.13
2023-03-06T22:27:31.139Z,3.98
2023-03-06T22:30:00.749Z,4.03
2023-03-06T22:32:33.365Z,4.02
2023-03-06T22:35:03.195Z,4.08
2023-03-06T22:37:33.990Z,4.08
2023-03-06T22:40:03.622Z,3.85
2023-03-06T22:42:33.262Z,3.95
2023-03-06T22:45:02.956Z,4.09
2023-03-06T22:47:38.406Z,4.03
2023-03-06T22:50:08.937Z,4.12
2023-03-06T22:52:38.587Z,4.14
2023-03-06T22:55:09.425Z,3.94
2023-03-06T22:57:39.047Z,3.96
2023-03-06T23:00:11.110Z,4.21
2023-03-06T23:02:43.968Z,3.99
2023-03-06T23:05:13.960Z,4.05
2023-03-06T23:07:43.569Z,3.83
2023-03-06T23:10:14.119Z,3.98
2023-03-06T23:13:03.280Z,4.10
2023-03-06T23:15:51.863Z,4.02
2023-03-06T23:18:44.088Z,4.02
2023-03-06T23:21:32.395Z,3.48
2023-03-06T23:24:21.050Z,3.99
2023-03-06T23:26:50.687Z,3.90
2023-03-06T23:29:20.309Z,3.96
2023-03-06T23:31:49.878Z,3.88
2023-03-06T23:34:22.078Z,4.07
2023-03-06T23:36:51.768Z,3.77
2023-03-06T23:39:22.615Z,3.67
2023-03-06T23:41:52.263Z,3.99
2023-03-06T23:44:21.868Z,3.79
2023-03-06T23:46:51.463Z,3.63
2023-03-06T23:49:23.818Z,3.79
2023-03-06T23:51:53.506Z,3.91
2023-03-06T23:54:23.131Z,3.77
2023-03-06T23:56:52.952Z,3.78
2023-03-06T23:59:22.833Z,3.52
